Time;durP1;ratioP1;P1;durP2;ratioP2;P2;SDS_P1;SDS_P2;PMS_P1;PMS_P2;Temp;Humidity;BMP_temperature;BMP_pressure;BME280_temperature;BME280_humidity;BME280_pressure;Samples;Min_cycle;Max_cycle;Signal;HPM_P1;HPM_P2
2022/07/20 00:01:18;;;;;;;9.73;5.60;;;;;;;;;;6186677;28;20394;-77
2022/07/20 00:04:18;;;;;;;10.98;5.15;;;;;;;;;;6150021;28;20086;-77
2022/07/20 00:07:19;;;;;;;9.88;5.82;;;;;;;;;;6170444;28;20022;-76
2022/07/20 00:13:38;;;;;;;9.77;5.55;;;;;;;;;;6182263;28;20710;-77
2022/07/20 00:16:38;;;;;;;14.63;5.80;;;;;;;;;;6166496;28;20060;-77
2022/07/20 00:19:38;;;;;;;9.77;4.67;;;;;;;;;;6189487;28;20015;-77
2022/07/20 00:22:39;;;;;;;13.47;5.83;;;;;;;;;;6158891;28;20026;-76
2022/07/20 00:25:39;;;;;;;11.27;5.30;;;;;;;;;;6191191;28;20504;-76
2022/07/20 00:28:39;;;;;;;10.38;5.68;;;;;;;;;;6179651;28;20019;-77
2022/07/20 00:31:39;;;;;;;9.87;5.57;;;;;;;;;;6185224;28;20379;-77
2022/07/20 00:34:39;;;;;;;12.88;5.80;;;;;;;;;;6159862;28;20367;-77
2022/07/20 00:37:41;;;;;;;12.17;6.73;;;;;;;;;;6175857;28;20033;-77
2022/07/20 00:40:41;;;;;;;15.67;6.67;;;;;;;;;;6163063;28;20302;-77
2022/07/20 00:43:54;;;;;;;11.18;5.10;;;;;;;;;;6157198;28;20014;-77
2022/07/20 00:46:55;;;;;;;11.75;5.15;;;;;;;;;;6155896;28;20023;-77
2022/07/20 00:49:55;;;;;;;8.10;5.47;;;;;;;;;;6164451;28;20022;-76
2022/07/20 00:52:56;;;;;;;8.93;4.53;;;;;;;;;;6184408;28;20359;-77
2022/07/20 00:55:56;;;;;;;12.45;4.88;;;;;;;;;;6180836;28;20098;-77
2022/07/20 00:58:56;;;;;;;11.95;7.00;;;;;;;;;;6154798;28;20098;-76
2022/07/20 01:01:56;;;;;;;11.25;6.10;;;;;;;;;;6162719;28;20006;-76
2022/07/20 01:04:57;;;;;;;10.47;4.87;;;;;;;;;;6187922;28;20534;-76
2022/07/20 01:07:57;;;;;;;13.93;6.28;;;;;;;;;;6160898;28;20286;-77
2022/07/20 01:10:57;;;;;;;9.70;5.65;;;;;;;;;;6175124;28;20030;-77
2022/07/20 01:14:01;;;;;;;10.23;6.45;;;;;;;;;;6182833;28;20727;-77
2022/07/20 01:17:02;;;;;;;13.00;6.88;;;;;;;;;;6170982;28;20490;-77
2022/07/20 01:20:02;;;;;;;9.63;5.60;;;;;;;;;;6167983;28;20026;-77
2022/07/20 01:23:02;;;;;;;14.73;7.32;;;;;;;;;;6196124;28;20038;-76
2022/07/20 01:26:03;;;;;;;12.25;5.70;;;;;;;;;;6178852;28;20154;-76
2022/07/20 01:29:03;;;;;;;9.05;5.55;;;;;;;;;;6169701;28;20069;-77
2022/07/20 01:32:03;;;;;;;10.63;5.53;;;;;;;;;;6151915;28;20022;-77
2022/07/20 01:35:04;;;;;;;10.95;5.47;;;;;;;;;;6162774;28;20062;-77
2022/07/20 01:38:04;;;;;;;11.07;6.50;;;;;;;;;;6167402;28;20026;-76
2022/07/20 01:41:04;;;;;;;14.63;6.03;;;;;;;;;;6184527;28;20033;-76
2022/07/20 01:44:05;;;;;;;12.00;6.17;;;;;;;;;;6163779;28;20031;-76
2022/07/20 01:47:05;;;;;;;15.23;6.50;;;;;;;;;;6149096;28;20341;-77
2022/07/20 01:50:05;;;;;;;20.20;6.90;;;;;;;;;;6164633;28;20025;-76
2022/07/20 01:53:06;;;;;;;18.05;6.68;;;;;;;;;;6163363;28;20317;-76
2022/07/20 01:56:07;;;;;;;11.50;6.55;;;;;;;;;;6162865;28;20018;-76
2022/07/20 01:59:07;;;;;;;13.82;7.28;;;;;;;;;;6163397;28;20065;-77
2022/07/20 02:02:07;;;;;;;14.23;7.10;;;;;;;;;;6188306;28;20034;-77
2022/07/20 02:05:08;;;;;;;12.27;6.90;;;;;;;;;;6162547;28;20096;-76
2022/07/20 02:08:08;;;;;;;12.60;6.88;;;;;;;;;;6189251;28;20357;-77
2022/07/20 02:11:08;;;;;;;9.98;6.82;;;;;;;;;;6184109;28;20046;-77
2022/07/20 02:14:09;;;;;;;15.57;6.20;;;;;;;;;;6144723;28;20388;-76
2022/07/20 02:17:09;;;;;;;16.33;7.83;;;;;;;;;;6159041;28;20035;-76
2022/07/20 02:20:09;;;;;;;13.57;6.60;;;;;;;;;;6182333;28;20266;-77
2022/07/20 02:23:11;;;;;;;11.50;6.20;;;;;;;;;;6178485;28;20479;-76
2022/07/20 02:26:11;;;;;;;11.70;6.73;;;;;;;;;;6184847;28;20487;-77
2022/07/20 02:29:11;;;;;;;13.57;6.90;;;;;;;;;;6166262;28;20058;-76
2022/07/20 02:32:11;;;;;;;13.67;6.83;;;;;;;;;;6199634;28;20026;-77
2022/07/20 02:35:11;;;;;;;11.07;5.80;;;;;;;;;;6162485;28;20264;-77
2022/07/20 02:38:12;;;;;;;11.02;6.05;;;;;;;;;;6165105;28;20007;-76
2022/07/20 02:41:12;;;;;;;12.73;5.93;;;;;;;;;;6190486;28;20057;-76
2022/07/20 02:44:12;;;;;;;12.60;5.50;;;;;;;;;;6161293;28;20502;-76
2022/07/20 02:47:12;;;;;;;13.63;5.50;;;;;;;;;;6175005;28;20072;-77
2022/07/20 02:50:13;;;;;;;11.70;5.40;;;;;;;;;;6187347;28;20316;-77
2022/07/20 02:53:14;;;;;;;12.57;6.43;;;;;;;;;;6159190;28;20019;-76
2022/07/20 02:56:14;;;;;;;12.57;5.65;;;;;;;;;;6159493;28;20041;-76
2022/07/20 02:59:14;;;;;;;10.77;5.87;;;;;;;;;;6157554;28;20039;-76
2022/07/20 03:02:14;;;;;;;13.70;6.80;;;;;;;;;;6158437;28;20113;-76
2022/07/20 03:05:15;;;;;;;12.07;6.00;;;;;;;;;;6168794;28;20274;-77
2022/07/20 03:08:15;;;;;;;11.75;6.20;;;;;;;;;;6161213;28;20038;-77
2022/07/20 03:11:15;;;;;;;13.50;6.47;;;;;;;;;;6178316;28;20022;-77
2022/07/20 03:14:15;;;;;;;12.37;6.53;;;;;;;;;;6160729;28;20029;-77
2022/07/20 03:17:16;;;;;;;13.50;6.45;;;;;;;;;;6176806;28;20026;-77
2022/07/20 03:20:21;;;;;;;17.02;6.82;;;;;;;;;;6182221;28;20077;-77
2022/07/20 03:23:21;;;;;;;15.80;6.07;;;;;;;;;;6174850;28;20088;-76
2022/07/20 03:26:22;;;;;;;10.13;5.72;;;;;;;;;;6180202;28;20026;-77
2022/07/20 03:29:22;;;;;;;13.23;7.15;;;;;;;;;;6169310;28;20435;-77
2022/07/20 03:32:22;;;;;;;10.43;5.67;;;;;;;;;;6174743;28;20054;-77
2022/07/20 03:35:23;;;;;;;14.90;6.90;;;;;;;;;;6176584;28;20337;-77
2022/07/20 03:38:23;;;;;;;10.05;6.07;;;;;;;;;;6168054;28;20026;-76
2022/07/20 03:41:23;;;;;;;13.35;7.10;;;;;;;;;;6189443;28;20029;-76
2022/07/20 03:44:23;;;;;;;12.65;5.88;;;;;;;;;;6167193;28;20272;-76
2022/07/20 03:47:24;;;;;;;16.50;7.15;;;;;;;;;;6196972;28;20078;-76
2022/07/20 03:50:24;;;;;;;13.02;6.40;;;;;;;;;;6174205;28;20026;-76
2022/07/20 03:53:24;;;;;;;13.70;6.30;;;;;;;;;;6189345;28;20084;-76
2022/07/20 03:56:24;;;;;;;13.35;6.57;;;;;;;;;;6159333;28;20027;-76
2022/07/20 03:59:25;;;;;;;14.50;7.25;;;;;;;;;;6185488;28;20777;-77
2022/07/20 04:02:25;;;;;;;14.02;7.13;;;;;;;;;;6171315;28;20576;-77
2022/07/20 04:05:25;;;;;;;13.40;6.33;;;;;;;;;;6177242;28;20038;-77
2022/07/20 04:08:25;;;;;;;11.83;6.53;;;;;;;;;;6174829;28;20277;-77
2022/07/20 04:11:26;;;;;;;15.38;6.38;;;;;;;;;;6178919;28;20014;-78
2022/07/20 04:14:26;;;;;;;13.38;6.20;;;;;;;;;;6162918;28;20042;-78
2022/07/20 04:17:26;;;;;;;14.20;7.22;;;;;;;;;;6193028;28;20015;-77
2022/07/20 04:20:26;;;;;;;13.93;6.53;;;;;;;;;;6192218;28;20043;-76
2022/07/20 04:23:28;;;;;;;17.10;7.23;;;;;;;;;;6177983;28;20382;-77
2022/07/20 04:26:28;;;;;;;15.90;7.07;;;;;;;;;;6166141;28;20765;-77
2022/07/20 04:29:29;;;;;;;11.30;6.70;;;;;;;;;;6169863;28;20026;-78
2022/07/20 04:32:29;;;;;;;17.40;7.22;;;;;;;;;;6184993;28;20474;-78
2022/07/20 04:35:29;;;;;;;12.80;7.23;;;;;;;;;;6195912;28;20029;-78
2022/07/20 04:38:29;;;;;;;12.63;8.07;;;;;;;;;;6176667;28;20049;-78
2022/07/20 04:41:29;;;;;;;13.17;7.10;;;;;;;;;;6166364;28;20129;-78
2022/07/20 04:44:30;;;;;;;17.87;7.73;;;;;;;;;;6180772;28;20033;-77
2022/07/20 04:47:30;;;;;;;19.10;8.97;;;;;;;;;;6181150;28;20027;-78
2022/07/20 04:50:30;;;;;;;21.93;9.93;;;;;;;;;;6161552;28;20041;-78
2022/07/20 04:53:30;;;;;;;19.93;8.20;;;;;;;;;;6178169;28;20407;-78
2022/07/20 04:56:30;;;;;;;14.33;7.33;;;;;;;;;;6157727;28;20027;-78
2022/07/20 04:59:31;;;;;;;13.40;7.10;;;;;;;;;;6175627;28;20035;-78
2022/07/20 05:02:31;;;;;;;19.07;7.77;;;;;;;;;;6187851;28;20021;-78
2022/07/20 05:05:31;;;;;;;12.87;7.87;;;;;;;;;;6178222;28;20101;-78
2022/07/20 05:08:31;;;;;;;19.90;7.50;;;;;;;;;;6159856;28;20398;-78
2022/07/20 05:11:32;;;;;;;14.97;8.07;;;;;;;;;;6159906;28;20015;-78
2022/07/20 05:14:32;;;;;;;15.30;7.93;;;;;;;;;;6193787;28;20018;-78
2022/07/20 05:17:32;;;;;;;14.20;6.10;;;;;;;;;;6177306;28;20355;-78
2022/07/20 05:20:32;;;;;;;15.93;8.47;;;;;;;;;;6174307;28;20003;-77
2022/07/20 05:23:32;;;;;;;12.93;6.90;;;;;;;;;;6155495;28;20433;-77
2022/07/20 05:26:33;;;;;;;12.43;6.70;;;;;;;;;;6175571;28;20026;-77
2022/07/20 05:29:33;;;;;;;23.00;7.30;;;;;;;;;;6166590;28;20014;-77
2022/07/20 05:32:33;;;;;;;14.03;7.33;;;;;;;;;;6172372;28;20022;-78
2022/07/20 05:35:33;;;;;;;15.47;6.40;;;;;;;;;;6167386;28;20062;-78
2022/07/20 05:38:33;;;;;;;18.73;6.40;;;;;;;;;;6165926;28;20041;-78
2022/07/20 05:41:34;;;;;;;14.37;6.30;;;;;;;;;;6165522;28;20079;-77
2022/07/20 05:44:34;;;;;;;12.83;5.23;;;;;;;;;;6158658;28;20122;-77
2022/07/20 05:47:34;;;;;;;11.37;5.13;;;;;;;;;;6167175;28;20018;-78
2022/07/20 05:50:35;;;;;;;11.97;5.07;;;;;;;;;;6174742;28;20371;-78
2022/07/20 05:53:35;;;;;;;15.90;6.30;;;;;;;;;;6178031;28;20023;-78
2022/07/20 05:56:35;;;;;;;;;;;;;;;;;;6160055;28;20046;-77
2022/07/20 05:59:35;;;;;;;11.40;6.10;;;;;;;;;;6161619;28;19921;-77
2022/07/20 06:02:35;;;;;;;;;;;;;;;;;;6178443;28;20030;-78
2022/07/20 06:05:36;;;;;;;14.40;5.20;;;;;;;;;;6172408;28;19914;-78
2022/07/20 06:08:37;;;;;;;10.87;5.93;;;;;;;;;;6152717;28;20111;-78
2022/07/20 06:11:37;;;;;;;10.50;5.63;;;;;;;;;;6173103;28;20541;-77
2022/07/20 06:14:38;;;;;;;9.20;4.50;;;;;;;;;;6159197;28;20019;-77
2022/07/20 06:17:38;;;;;;;10.33;5.93;;;;;;;;;;6156907;28;20066;-77
2022/07/20 06:20:39;;;;;;;9.40;5.18;;;;;;;;;;6155878;28;20078;-77
2022/07/20 06:23:39;;;;;;;13.77;5.40;;;;;;;;;;6168137;28;20018;-77
2022/07/20 06:26:39;;;;;;;11.25;5.43;;;;;;;;;;6159370;28;20100;-77
2022/07/20 06:29:40;;;;;;;11.57;5.60;;;;;;;;;;6157559;28;20018;-77
2022/07/20 06:32:40;;;;;;;12.73;5.63;;;;;;;;;;6155209;28;20259;-78
2022/07/20 06:35:40;;;;;;;14.77;5.93;;;;;;;;;;6169080;28;20046;-78
2022/07/20 06:38:40;;;;;;;11.70;4.93;;;;;;;;;;6177109;28;20057;-79
2022/07/20 06:41:40;;;;;;;11.73;4.72;;;;;;;;;;6150055;28;20022;-78
2022/07/20 06:44:41;;;;;;;12.20;5.50;;;;;;;;;;6146126;28;20490;-78
2022/07/20 06:47:41;;;;;;;11.57;5.50;;;;;;;;;;6149778;28;20443;-79
2022/07/20 06:50:41;;;;;;;10.97;4.97;;;;;;;;;;6156923;28;20341;-79
2022/07/20 06:53:41;;;;;;;10.47;4.93;;;;;;;;;;6164915;28;20113;-79
2022/07/20 06:56:42;;;;;;;9.33;5.20;;;;;;;;;;6171400;28;20479;-79
2022/07/20 06:59:42;;;;;;;12.17;5.40;;;;;;;;;;6151626;28;20633;-78
2022/07/20 07:02:42;;;;;;;11.85;5.85;;;;;;;;;;6154190;28;20259;-79
2022/07/20 07:05:44;;;;;;;11.53;5.57;;;;;;;;;;6148421;28;20023;-79
2022/07/20 07:08:44;;;;;;;9.65;5.18;;;;;;;;;;6143434;28;20434;-78
2022/07/20 07:11:44;;;;;;;9.33;4.13;;;;;;;;;;6147672;28;20454;-78
2022/07/20 07:14:44;;;;;;;9.87;4.57;;;;;;;;;;6149897;28;20078;-78
2022/07/20 07:17:45;;;;;;;9.00;4.30;;;;;;;;;;6160256;28;20117;-78
2022/07/20 07:20:45;;;;;;;9.13;4.38;;;;;;;;;;6146047;28;20028;-77
2022/07/20 07:23:49;;;;;;;10.47;5.20;;;;;;;;;;6155525;28;20478;-77
2022/07/20 07:26:49;;;;;;;10.18;4.95;;;;;;;;;;6160869;28;20024;-77
2022/07/20 07:29:49;;;;;;;8.63;4.33;;;;;;;;;;6158023;28;20070;-77
2022/07/20 07:32:49;;;;;;;8.63;4.73;;;;;;;;;;6150501;28;20023;-77
2022/07/20 07:35:50;;;;;;;6.73;4.03;;;;;;;;;;6145981;28;20023;-79
2022/07/20 07:38:50;;;;;;;8.30;4.30;;;;;;;;;;6139924;28;20077;-77
2022/07/20 07:41:50;;;;;;;9.47;4.93;;;;;;;;;;6138297;28;20030;-77
2022/07/20 07:44:50;;;;;;;9.60;4.30;;;;;;;;;;6149878;28;20054;-77
2022/07/20 07:47:52;;;;;;;8.73;4.90;;;;;;;;;;6158120;28;20051;-78
2022/07/20 07:50:52;;;;;;;7.07;4.20;;;;;;;;;;6156627;28;20540;-78
2022/07/20 07:53:53;;;;;;;10.40;4.10;;;;;;;;;;6153038;28;20019;-78
2022/07/20 07:56:53;;;;;;;13.38;5.40;;;;;;;;;;6153235;28;20038;-78
2022/07/20 07:59:53;;;;;;;9.65;4.30;;;;;;;;;;6166822;28;20043;-78
2022/07/20 08:02:54;;;;;;;11.97;5.20;;;;;;;;;;6153491;28;20031;-77
2022/07/20 08:05:54;;;;;;;12.65;6.20;;;;;;;;;;6158434;28;20053;-78
2022/07/20 08:08:55;;;;;;;13.63;5.70;;;;;;;;;;6148081;28;20748;-77
2022/07/20 08:11:55;;;;;;;13.00;6.43;;;;;;;;;;6147257;28;20050;-78
2022/07/20 08:14:55;;;;;;;12.03;5.50;;;;;;;;;;6140936;28;20019;-78
2022/07/20 08:17:55;;;;;;;12.50;6.03;;;;;;;;;;6145910;28;20041;-78
2022/07/20 08:20:56;;;;;;;16.03;6.60;;;;;;;;;;6145879;28;20275;-77
2022/07/20 08:23:56;;;;;;;14.90;6.53;;;;;;;;;;6137367;28;20024;-77
2022/07/20 08:26:56;;;;;;;9.27;5.80;;;;;;;;;;6150693;28;20398;-77
2022/07/20 08:29:58;;;;;;;13.73;5.57;;;;;;;;;;6150679;28;20024;-77
2022/07/20 08:32:58;;;;;;;12.05;5.15;;;;;;;;;;6138054;28;20071;-77
2022/07/20 08:35:58;;;;;;;12.57;5.38;;;;;;;;;;6147212;28;20409;-77
2022/07/20 08:38:59;;;;;;;13.83;5.53;;;;;;;;;;6147012;28;20026;-78
2022/07/20 08:41:59;;;;;;;9.40;4.80;;;;;;;;;;6148817;28;20020;-77
2022/07/20 08:44:59;;;;;;;16.43;5.03;;;;;;;;;;6143466;28;20038;-78
2022/07/20 08:48:01;;;;;;;12.27;5.33;;;;;;;;;;6144471;28;20078;-78
2022/07/20 08:51:01;;;;;;;11.80;5.50;;;;;;;;;;6141477;28;20034;-78
2022/07/20 08:54:01;;;;;;;11.88;5.80;;;;;;;;;;6143908;28;20019;-79
2022/07/20 08:57:14;;;;;;;10.90;6.03;;;;;;;;;;6163591;28;20007;-79
2022/07/20 09:00:16;;;;;;;13.73;6.05;;;;;;;;;;6167828;28;20518;-79
2022/07/20 09:03:16;;;;;;;11.27;6.03;;;;;;;;;;6169462;28;20019;-79
2022/07/20 09:06:16;;;;;;;11.67;5.27;;;;;;;;;;6156992;28;20277;-79
2022/07/20 09:09:18;;;;;;;13.53;5.80;;;;;;;;;;6157179;28;20848;-79
2022/07/20 09:12:18;;;;;;;11.45;5.32;;;;;;;;;;6162824;28;20103;-79
2022/07/20 09:15:27;;;;;;;13.35;6.40;;;;;;;;;;6159417;28;20045;-79
2022/07/20 09:18:29;;;;;;;11.73;6.35;;;;;;;;;;6148866;28;20028;-79
2022/07/20 09:21:30;;;;;;;12.65;5.03;;;;;;;;;;6151655;28;20027;-79
2022/07/20 09:24:32;;;;;;;9.60;5.03;;;;;;;;;;6157853;28;20073;-77
2022/07/20 09:27:33;;;;;;;7.72;4.38;;;;;;;;;;6159963;28;20049;-78
2022/07/20 09:30:34;;;;;;;10.75;4.60;;;;;;;;;;6167907;28;20133;-77
2022/07/20 09:33:34;;;;;;;8.57;4.33;;;;;;;;;;6188500;28;20069;-77
2022/07/20 09:36:44;;;;;;;29.47;6.30;;;;;;;;;;6162750;28;20053;-78
2022/07/20 09:39:59;;;;;;;14.30;4.57;;;;;;;;;;6157989;28;20022;-78
2022/07/20 09:42:59;;;;;;;10.40;4.40;;;;;;;;;;6159594;28;20022;-78
2022/07/20 09:46:16;;;;;;;12.07;4.93;;;;;;;;;;6196805;28;20466;-78
2022/07/20 09:49:16;;;;;;;8.43;3.95;;;;;;;;;;6185056;28;20045;-78
2022/07/20 09:52:16;;;;;;;12.95;4.60;;;;;;;;;;6168136;28;20023;-77
2022/07/20 09:55:16;;;;;;;9.73;4.00;;;;;;;;;;6150911;28;20078;-78
2022/07/20 09:58:18;;;;;;;7.00;3.67;;;;;;;;;;6160421;28;20478;-77
2022/07/20 10:01:20;;;;;;;8.88;4.50;;;;;;;;;;6176544;28;20023;-78
2022/07/20 10:04:20;;;;;;;16.23;4.28;;;;;;;;;;6190173;28;20034;-78
2022/07/20 10:07:21;;;;;;;6.15;3.25;;;;;;;;;;6175533;28;20031;-77
2022/07/20 10:10:22;;;;;;;8.98;3.70;;;;;;;;;;6172392;28;20537;-78
2022/07/20 10:13:23;;;;;;;9.57;3.17;;;;;;;;;;6160881;28;20049;-78
2022/07/20 10:16:42;;;;;;;6.70;3.38;;;;;;;;;;6179806;28;20054;-78
2022/07/20 10:19:43;;;;;;;8.73;3.88;;;;;;;;;;6179214;28;20097;-79
2022/07/20 10:22:43;;;;;;;7.63;3.78;;;;;;;;;;6155021;28;20355;-78
2022/07/20 10:25:44;;;;;;;6.37;3.60;;;;;;;;;;6168551;28;20054;-78
2022/07/20 10:28:57;;;;;;;6.45;3.80;;;;;;;;;;6155251;28;20058;-79
2022/07/20 10:31:59;;;;;;;6.47;3.70;;;;;;;;;;6163912;28;20024;-78
2022/07/20 10:35:00;;;;;;;8.85;4.00;;;;;;;;;;6150064;28;20479;-77
2022/07/20 10:38:00;;;;;;;9.82;4.25;;;;;;;;;;6167481;28;20081;-78
2022/07/20 10:44:22;;;;;;;11.00;5.25;;;;;;;;;;6168086;28;20038;-78
2022/07/20 10:47:38;;;;;;;14.60;5.20;;;;;;;;;;6166842;28;20034;-78
2022/07/20 10:50:43;;;;;;;8.30;4.70;;;;;;;;;;6170655;28;20823;-79
2022/07/20 10:53:43;;;;;;;10.13;5.18;;;;;;;;;;6161907;28;20019;-78
2022/07/20 10:56:43;;;;;;;10.82;5.40;;;;;;;;;;6153375;28;20049;-78
2022/07/20 10:59:43;;;;;;;8.80;4.70;;;;;;;;;;6187703;28;20173;-78
2022/07/20 11:02:44;;;;;;;9.77;4.67;;;;;;;;;;6175127;28;20031;-79
2022/07/20 11:05:45;;;;;;;12.70;4.77;;;;;;;;;;6179158;28;20019;-78
2022/07/20 11:08:57;;;;;;;9.07;4.70;;;;;;;;;;6177747;28;20639;-78
2022/07/20 11:11:57;;;;;;;10.27;4.72;;;;;;;;;;6162546;28;20062;-78
2022/07/20 11:14:57;;;;;;;9.33;4.73;;;;;;;;;;6151910;28;20110;-79
2022/07/20 11:17:58;;;;;;;10.02;5.10;;;;;;;;;;6163129;28;20011;-79
2022/07/20 11:21:00;;;;;;;9.48;4.18;;;;;;;;;;6182172;28;20105;-79
2022/07/20 11:24:01;;;;;;;10.52;5.00;;;;;;;;;;6147356;28;20026;-79
2022/07/20 11:27:15;;;;;;;15.20;5.82;;;;;;;;;;6185306;28;20573;-79
2022/07/20 11:30:15;;;;;;;15.85;6.00;;;;;;;;;;6179041;28;20018;-79
2022/07/20 11:33:21;;;;;;;14.50;5.67;;;;;;;;;;6158889;28;20030;-79
2022/07/20 11:36:26;;;;;;;12.57;6.13;;;;;;;;;;6162990;28;20025;-79
2022/07/20 11:39:26;;;;;;;19.55;6.40;;;;;;;;;;6175535;28;20656;-79
2022/07/20 11:42:28;;;;;;;11.40;5.47;;;;;;;;;;6182824;28;20018;-78
2022/07/20 11:45:28;;;;;;;14.80;5.53;;;;;;;;;;6175134;28;20027;-79
2022/07/20 11:48:28;;;;;;;15.53;5.27;;;;;;;;;;6165020;28;20058;-79
2022/07/20 11:51:30;;;;;;;14.17;5.60;;;;;;;;;;6148501;28;20034;-79
2022/07/20 11:54:33;;;;;;;9.02;5.13;;;;;;;;;;6183288;28;20018;-79
2022/07/20 11:57:34;;;;;;;12.43;5.18;;;;;;;;;;6169684;28;20033;-79
2022/07/20 12:00:34;;;;;;;13.63;6.25;;;;;;;;;;6154410;28;20083;-79
2022/07/20 12:03:36;;;;;;;15.15;5.80;;;;;;;;;;6144208;28;20035;-79
2022/07/20 12:06:37;;;;;;;14.38;6.20;;;;;;;;;;6164611;28;20472;-79
2022/07/20 12:09:39;;;;;;;13.65;5.32;;;;;;;;;;6156023;28;20022;-79
2022/07/20 12:12:45;;;;;;;14.73;4.68;;;;;;;;;;6140123;28;20026;-78
2022/07/20 12:15:53;;;;;;;10.05;4.35;;;;;;;;;;6164510;28;20027;-79
2022/07/20 12:18:53;;;;;;;11.90;5.22;;;;;;;;;;6153954;28;20526;-79
2022/07/20 12:21:53;;;;;;;14.40;5.80;;;;;;;;;;6152508;28;20019;-79
2022/07/20 12:24:55;;;;;;;13.10;4.70;;;;;;;;;;6148180;28;20026;-79
2022/07/20 12:27:55;;;;;;;10.35;4.97;;;;;;;;;;6168403;28;20482;-78
2022/07/20 12:31:09;;;;;;;13.63;5.63;;;;;;;;;;6148075;28;20073;-79
2022/07/20 12:34:10;;;;;;;12.23;4.60;;;;;;;;;;6164875;28;20042;-79
2022/07/20 12:37:10;;;;;;;12.63;5.25;;;;;;;;;;6148302;28;20054;-79
2022/07/20 12:40:11;;;;;;;10.77;5.53;;;;;;;;;;6147475;28;20475;-78
2022/07/20 12:43:30;;;;;;;10.50;5.75;;;;;;;;;;6145787;28;20034;-79
2022/07/20 12:46:30;;;;;;;11.55;4.72;;;;;;;;;;6158184;28;20035;-79
2022/07/20 12:49:30;;;;;;;11.87;5.40;;;;;;;;;;6167604;28;20097;-79
2022/07/20 12:52:31;;;;;;;11.07;4.95;;;;;;;;;;6147731;28;20455;-79
2022/07/20 12:55:31;;;;;;;10.70;5.25;;;;;;;;;;6162518;28;20022;-79
2022/07/20 12:58:31;;;;;;;10.67;5.07;;;;;;;;;;6152963;28;20017;-80
2022/07/20 13:01:32;;;;;;;17.43;4.93;;;;;;;;;;6178709;28;20034;-79
2022/07/20 13:04:32;;;;;;;9.33;4.90;;;;;;;;;;6170501;28;20778;-80
2022/07/20 13:07:32;;;;;;;12.40;4.93;;;;;;;;;;6178907;28;20014;-80
2022/07/20 13:10:32;;;;;;;10.97;4.83;;;;;;;;;;6159472;28;20023;-80
2022/07/20 13:13:33;;;;;;;15.60;4.93;;;;;;;;;;6173188;28;20018;-80
2022/07/20 13:16:33;;;;;;;11.07;5.93;;;;;;;;;;6175996;28;20014;-79
2022/07/20 13:19:33;;;;;;;11.03;4.73;;;;;;;;;;6177985;28;20015;-80
2022/07/20 13:22:33;;;;;;;16.30;5.90;;;;;;;;;;6174072;28;20420;-80
2022/07/20 13:25:34;;;;;;;11.00;5.40;;;;;;;;;;6153783;28;20026;-81
2022/07/20 13:28:35;;;;;;;9.30;4.97;;;;;;;;;;6174736;28;20042;-80
2022/07/20 13:31:35;;;;;;;12.98;5.28;;;;;;;;;;6183425;28;20027;-80
2022/07/20 13:34:35;;;;;;;8.70;4.57;;;;;;;;;;6160776;28;20008;-80
2022/07/20 13:37:36;;;;;;;12.77;5.90;;;;;;;;;;6160036;28;20030;-80
2022/07/20 13:40:36;;;;;;;14.32;5.20;;;;;;;;;;6177101;28;20133;-80
2022/07/20 13:43:36;;;;;;;11.33;4.93;;;;;;;;;;6153367;28;20029;-79
2022/07/20 13:46:37;;;;;;;12.70;4.80;;;;;;;;;;6151936;28;20046;-80
2022/07/20 13:49:37;;;;;;;10.17;4.57;;;;;;;;;;6175536;28;20019;-80
2022/07/20 13:52:37;;;;;;;12.37;5.53;;;;;;;;;;6172192;28;20051;-80
2022/07/20 13:55:38;;;;;;;11.93;5.07;;;;;;;;;;6159112;28;20019;-80
2022/07/20 13:58:38;;;;;;;9.50;4.43;;;;;;;;;;6161179;28;20038;-80
2022/07/20 14:01:44;;;;;;;12.50;4.50;;;;;;;;;;6177630;28;20103;-80
2022/07/20 14:04:45;;;;;;;9.27;5.10;;;;;;;;;;6153257;28;20093;-80
2022/07/20 14:07:45;;;;;;;8.47;5.00;;;;;;;;;;6154535;28;20577;-80
2022/07/20 14:10:45;;;;;;;10.30;5.27;;;;;;;;;;6173102;28;20717;-79
2022/07/20 14:13:46;;;;;;;8.70;4.77;;;;;;;;;;6165258;28;20463;-80
2022/07/20 14:16:46;;;;;;;14.63;5.43;;;;;;;;;;6141048;28;20078;-80
2022/07/20 14:19:46;;;;;;;11.37;5.30;;;;;;;;;;6153932;28;20337;-80
2022/07/20 14:22:46;;;;;;;13.07;4.40;;;;;;;;;;6164800;28;20490;-80
2022/07/20 14:25:46;;;;;;;10.33;4.50;;;;;;;;;;6190120;28;20033;-80
2022/07/20 14:28:47;;;;;;;9.77;4.63;;;;;;;;;;6163519;28;20054;-80
2022/07/20 14:31:47;;;;;;;9.40;4.83;;;;;;;;;;6157254;28;20019;-80
2022/07/20 14:34:47;;;;;;;10.40;5.10;;;;;;;;;;6165045;28;20027;-80
2022/07/20 14:37:47;;;;;;;11.30;5.23;;;;;;;;;;6169160;28;20053;-80
2022/07/20 14:40:48;;;;;;;11.50;5.37;;;;;;;;;;6169663;28;20018;-79
2022/07/20 14:43:48;;;;;;;10.48;4.75;;;;;;;;;;6159884;28;20023;-80
2022/07/20 14:46:49;;;;;;;8.63;4.53;;;;;;;;;;6165333;28;20038;-80
2022/07/20 14:49:49;;;;;;;12.85;5.20;;;;;;;;;;6182361;28;20022;-79
2022/07/20 14:52:49;;;;;;;13.77;4.77;;;;;;;;;;6159207;28;20018;-81
2022/07/20 14:55:50;;;;;;;11.77;5.27;;;;;;;;;;6167714;28;20019;-80
2022/07/20 14:58:50;;;;;;;14.60;5.33;;;;;;;;;;6156764;28;20485;-79
2022/07/20 15:01:50;;;;;;;12.00;5.47;;;;;;;;;;6151031;28;20035;-79
2022/07/20 15:04:51;;;;;;;9.47;4.97;;;;;;;;;;6155065;28;20030;-79
2022/07/20 15:07:51;;;;;;;12.57;5.25;;;;;;;;;;6157420;28;20030;-80
2022/07/20 15:10:55;;;;;;;10.77;5.77;;;;;;;;;;6187190;28;20023;-79
2022/07/20 15:13:55;;;;;;;10.45;5.03;;;;;;;;;;6166876;28;20027;-79
2022/07/20 15:16:55;;;;;;;11.63;4.47;;;;;;;;;;6181932;28;20019;-80
2022/07/20 15:19:55;;;;;;;11.13;5.07;;;;;;;;;;6168308;28;20031;-80
2022/07/20 15:22:56;;;;;;;12.17;5.53;;;;;;;;;;6174561;28;20026;-80
2022/07/20 15:25:56;;;;;;;10.33;4.63;;;;;;;;;;6164187;28;20541;-79
2022/07/20 15:28:56;;;;;;;9.35;4.80;;;;;;;;;;6154994;28;20577;-80
2022/07/20 15:31:56;;;;;;;10.10;4.47;;;;;;;;;;6171341;28;20027;-80
2022/07/20 15:34:57;;;;;;;10.90;4.40;;;;;;;;;;6187962;28;20375;-79
2022/07/20 15:37:57;;;;;;;11.23;5.53;;;;;;;;;;6160867;28;20017;-80
2022/07/20 15:40:57;;;;;;;7.80;4.47;;;;;;;;;;6180211;28;20026;-80
2022/07/20 15:43:58;;;;;;;9.90;3.90;;;;;;;;;;6159023;28;20023;-79
2022/07/20 15:46:59;;;;;;;10.18;4.32;;;;;;;;;;6192190;28;20042;-78
2022/07/20 15:49:59;;;;;;;8.88;4.28;;;;;;;;;;6170270;28;20025;-79
2022/07/20 15:52:59;;;;;;;8.80;4.80;;;;;;;;;;6145371;28;20027;-79
2022/07/20 15:55:59;;;;;;;8.20;5.10;;;;;;;;;;6166778;28;20270;-79
2022/07/20 15:59:00;;;;;;;9.43;5.17;;;;;;;;;;6177912;28;20101;-79
2022/07/20 16:02:00;;;;;;;6.77;3.90;;;;;;;;;;6165808;28;20282;-80
2022/07/20 16:05:00;;;;;;;6.00;3.65;;;;;;;;;;6154237;28;20114;-79
2022/07/20 16:08:01;;;;;;;13.77;5.27;;;;;;;;;;6166699;28;20105;-79
2022/07/20 16:11:01;;;;;;;8.57;4.07;;;;;;;;;;6151398;28;20097;-79
2022/07/20 16:14:01;;;;;;;6.43;3.80;;;;;;;;;;6164820;28;20134;-79
2022/07/20 16:17:02;;;;;;;11.57;4.63;;;;;;;;;;6178348;28;20345;-79
2022/07/20 16:20:02;;;;;;;7.82;4.32;;;;;;;;;;6174733;28;20021;-79
2022/07/20 16:23:02;;;;;;;8.90;4.90;;;;;;;;;;6183854;28;20086;-79
2022/07/20 16:26:02;;;;;;;10.17;5.20;;;;;;;;;;6182791;28;20021;-79
2022/07/20 16:29:03;;;;;;;7.43;4.43;;;;;;;;;;6160893;28;20041;-79
2022/07/20 16:32:07;;;;;;;12.63;4.75;;;;;;;;;;6162403;28;20351;-79
2022/07/20 16:35:07;;;;;;;9.02;4.70;;;;;;;;;;6186214;28;20436;-79
2022/07/20 16:38:07;;;;;;;6.33;4.10;;;;;;;;;;6153951;28;20165;-79
2022/07/20 16:41:08;;;;;;;9.63;4.25;;;;;;;;;;6151483;28;20435;-79
2022/07/20 16:44:08;;;;;;;8.38;4.60;;;;;;;;;;6146385;28;20098;-79
2022/07/20 16:47:09;;;;;;;9.83;4.13;;;;;;;;;;6178443;28;20078;-79
2022/07/20 16:50:09;;;;;;;9.82;4.68;;;;;;;;;;6173898;28;20026;-79
2022/07/20 16:53:09;;;;;;;10.50;5.20;;;;;;;;;;6160115;28;20015;-79
2022/07/20 16:56:10;;;;;;;15.50;4.93;;;;;;;;;;6160884;28;20683;-79
2022/07/20 16:59:11;;;;;;;13.95;4.38;;;;;;;;;;6164684;28;20047;-79
2022/07/20 17:02:11;;;;;;;7.35;4.28;;;;;;;;;;6153362;28;20019;-79
2022/07/20 17:05:11;;;;;;;7.90;4.40;;;;;;;;;;6172703;28;20582;-80
2022/07/20 17:08:12;;;;;;;11.93;4.40;;;;;;;;;;6175447;28;20137;-79
2022/07/20 17:11:13;;;;;;;12.10;4.07;;;;;;;;;;6179188;28;20057;-79
2022/07/20 17:14:14;;;;;;;11.52;4.93;;;;;;;;;;6157863;28;20074;-79
2022/07/20 17:17:14;;;;;;;9.57;4.70;;;;;;;;;;6150858;28;20046;-79
2022/07/20 17:20:14;;;;;;;;;;;;;;;;;;6144751;28;20258;-79
2022/07/20 17:23:14;;;;;;;13.32;5.30;;;;;;;;;;6166173;28;19960;-79
2022/07/20 17:26:15;;;;;;;11.37;4.83;;;;;;;;;;6161701;28;20011;-79
2022/07/20 17:29:15;;;;;;;;;;;;;;;;;;6174587;28;20070;-79
2022/07/20 17:32:16;;;;;;;12.57;4.35;;;;;;;;;;6151704;28;19957;-79
2022/07/20 17:35:16;;;;;;;;;;;;;;;;;;6143698;28;20518;-79
2022/07/20 17:38:16;;;;;;;8.30;4.63;;;;;;;;;;6145827;28;20208;-79
2022/07/20 17:41:16;;;;;;;;;;;;;;;;;;6166004;28;20027;-79
2022/07/20 17:44:16;;;;;;;9.82;4.00;;;;;;;;;;6176576;28;19943;-79
2022/07/20 17:47:16;;;;;;;;;;;;;;;;;;6156657;28;20019;-79
2022/07/20 17:50:17;;;;;;;12.68;4.70;;;;;;;;;;6165981;28;19988;-79
2022/07/20 17:53:17;;;;;;;8.65;4.50;;;;;;;;;;6160364;28;20030;-79
2022/07/20 17:56:17;;;;;;;;;;;;;;;;;;6176823;28;20026;-79
2022/07/20 17:59:18;;;;;;;11.50;4.75;;;;;;;;;;6152970;28;19961;-79
2022/07/20 18:02:18;;;;;;;9.68;4.60;;;;;;;;;;6170888;28;20026;-79